MINES EIDW-EIWT

Flight info

Callsign MINES
Flight time N/A
Altitude 2000
Route EIWT
Aircraft A109/L-SFG/C

Departure

Time 2026-05-05 15:51
Airport Dublin Airport (EIDW)

Arrival

Time N/A
Airport EIWT
Time Latitude Longitude Altitude Speed Heading
2026-05-05 15:44 53.43130 -6.26323 217 ft 0 kts 275°
2026-05-05 15:50 53.43130 -6.26324 217 ft 0 kts 308°
2026-05-05 15:50 53.43132 -6.26304 217 ft 3 kts 126°
2026-05-05 15:50 53.43120 -6.26296 233 ft 3 kts 143°
2026-05-05 15:51 53.43051 -6.26302 331 ft 21 kts 192°
2026-05-05 15:51 53.42773 -6.26372 552 ft 66 kts 189°
2026-05-05 15:51 53.42309 -6.26894 828 ft 92 kts 214°
2026-05-05 15:51 53.41779 -6.27625 1228 ft 103 kts 213°
2026-05-05 15:52 53.41188 -6.28247 1289 ft 101 kts 205°
2026-05-05 15:52 53.40529 -6.28705 1248 ft 101 kts 203°
2026-05-05 15:52 53.39858 -6.29115 1229 ft 100 kts 199°
2026-05-05 15:52 53.39210 -6.29548 1219 ft 100 kts 207°
2026-05-05 15:53 53.38625 -6.30200 1217 ft 99 kts 216°
2026-05-05 15:53 53.38065 -6.30887 1215 ft 100 kts 218°
2026-05-05 15:53 53.37590 -6.31731 1217 ft 98 kts 239°
2026-05-05 15:53 53.37226 -6.32715 1214 ft 99 kts 242°
2026-05-05 15:54 53.36869 -6.33705 1214 ft 100 kts 244°
2026-05-05 15:54 53.36502 -6.34687 1215 ft 98 kts 241°
2026-05-05 15:54 53.36216 -6.35717 1215 ft 98 kts 259°
2026-05-05 15:54 53.36067 -6.36843 1216 ft 98 kts 261°
2026-05-05 15:55 53.35928 -6.37947 1214 ft 97 kts 263°
2026-05-05 15:55 53.35788 -6.39067 1216 ft 98 kts 260°
2026-05-05 15:55 53.35649 -6.40181 1214 ft 97 kts 262°
2026-05-05 15:55 53.35552 -6.41326 1156 ft 99 kts 272°
2026-05-05 15:56 53.35488 -6.42489 978 ft 100 kts 268°
2026-05-05 15:56 53.35432 -6.43632 817 ft 90 kts 267°
2026-05-05 15:56 53.35367 -6.44585 792 ft 77 kts 269°
2026-05-05 15:56 53.35304 -6.45460 755 ft 72 kts 267°
2026-05-05 15:57 53.35274 -6.46250 644 ft 63 kts 274°
2026-05-05 15:57 53.35244 -6.46989 567 ft 64 kts 272°
2026-05-05 15:57 53.35245 -6.47747 474 ft 64 kts 276°
2026-05-05 15:57 53.35276 -6.48418 323 ft 50 kts 287°
2026-05-05 15:58 53.35374 -6.48822 196 ft 27 kts 333°
2026-05-05 15:58 53.35419 -6.48946 255 ft 6 kts 344°
2026-05-05 15:58 53.35481 -6.48980 201 ft 12 kts 63°
2026-05-05 15:58 53.35491 -6.48959 169 ft 3 kts 154°
2026-05-05 15:59 53.35478 -6.48929 174 ft 5 kts 264°
2026-05-05 15:59 53.35468 -6.48951 163 ft 3 kts
2026-05-05 15:59 53.35473 -6.48944 156 ft 0 kts 316°